createdAt,value
2022-12-01T00:00:19.442Z,88.40
2022-12-01T00:03:11.538Z,88.60
2022-12-01T00:05:43.503Z,88.51
2022-12-01T00:08:15.379Z,88.42
2022-12-01T00:10:47.640Z,88.33
2022-12-01T00:13:19.680Z,88.25
2022-12-01T00:15:51.464Z,88.22
2022-12-01T00:18:23.227Z,88.09
2022-12-01T00:20:56.187Z,88.02
2022-12-01T00:23:27.967Z,88.01
2022-12-01T00:26:05.144Z,88.00
2022-12-01T00:28:36.902Z,88.10
2022-12-01T00:31:11.947Z,88.08
2022-12-01T00:33:43.791Z,87.78
2022-12-01T00:36:16.082Z,87.67
2022-12-01T00:38:48.009Z,87.61
2022-12-01T00:41:20.076Z,87.54
2022-12-01T00:43:51.975Z,87.51
2022-12-01T00:46:24.791Z,87.43
2022-12-01T00:48:56.813Z,87.07
2022-12-01T00:51:28.864Z,87.12
2022-12-01T00:54:00.617Z,87.11
2022-12-01T00:56:32.354Z,87.26
2022-12-01T00:59:04.705Z,87.17
2022-12-01T01:01:36.567Z,87.41
2022-12-01T01:04:08.671Z,87.09
2022-12-01T01:06:40.418Z,87.10
2022-12-01T01:09:13.047Z,86.99
2022-12-01T01:11:45.343Z,86.91
2022-12-01T01:14:17.150Z,87.01
2022-12-01T01:16:49.074Z,87.25
2022-12-01T01:19:20.846Z,87.17
2022-12-01T01:21:52.567Z,87.18
2022-12-01T01:24:24.304Z,87.08
2022-12-01T01:26:56.100Z,87.03
2022-12-01T01:29:28.466Z,86.93
2022-12-01T01:32:00.211Z,87.00
2022-12-01T01:34:32.159Z,86.91
2022-12-01T01:37:03.932Z,86.86
2022-12-01T01:39:35.849Z,87.05
2022-12-01T01:42:07.795Z,87.07
2022-12-01T01:44:56.675Z,87.21
2022-12-01T01:47:33.333Z,87.28
2022-12-01T01:50:09.320Z,87.07
2022-12-01T01:52:44.568Z,87.21
2022-12-01T01:55:16.869Z,87.09
2022-12-01T01:57:48.929Z,87.01
2022-12-01T02:00:22.944Z,87.01
2022-12-01T02:02:57.926Z,86.93
2022-12-01T02:05:34.013Z,87.04
2022-12-01T02:08:12.389Z,87.10
2022-12-01T02:10:52.276Z,87.19
2022-12-01T02:13:34.945Z,87.27
2022-12-01T02:16:16.014Z,87.55
2022-12-01T02:18:56.439Z,87.41
2022-12-01T02:21:35.174Z,87.48
2022-12-01T02:24:26.979Z,87.34
2022-12-01T02:27:06.126Z,87.07
2022-12-01T02:29:57.401Z,87.11
2022-12-01T02:32:35.470Z,87.19
2022-12-01T02:35:16.327Z,87.02
2022-12-01T02:37:58.096Z,87.05
2022-12-01T02:40:35.961Z,87.17
2022-12-01T02:43:15.376Z,87.29
2022-12-01T02:45:53.102Z,87.24
2022-12-01T02:48:29.571Z,87.08
2022-12-01T02:51:05.571Z,87.14
2022-12-01T02:53:37.514Z,87.15
2022-12-01T02:56:13.475Z,86.92
2022-12-01T02:58:46.021Z,86.96
2022-12-01T03:01:32.417Z,87.16
2022-12-01T03:04:30.594Z,87.22
2022-12-01T03:07:07.980Z,87.30
2022-12-01T03:09:47.986Z,87.36
2022-12-01T03:12:28.367Z,87.40
2022-12-01T03:15:08.138Z,87.38
2022-12-01T03:17:47.016Z,87.37
2022-12-01T03:20:26.279Z,87.42
2022-12-01T03:23:02.348Z,87.29
2022-12-01T03:25:35.321Z,87.32
2022-12-01T03:28:24.881Z,87.40
2022-12-01T03:31:00.614Z,87.43
2022-12-01T03:33:37.880Z,87.66
2022-12-01T03:36:15.294Z,87.71
2022-12-01T03:38:53.117Z,87.83
2022-12-01T03:41:29.326Z,87.90
2022-12-01T03:44:06.579Z,87.97
2022-12-01T03:46:48.809Z,88.06
2022-12-01T03:49:21.774Z,87.99
2022-12-01T03:52:03.317Z,87.88
2022-12-01T03:54:50.233Z,87.99
2022-12-01T03:57:26.876Z,87.89
2022-12-01T03:59:59.091Z,87.84
2022-12-01T04:02:31.089Z,87.82
2022-12-01T04:05:05.645Z,87.94
2022-12-01T04:07:37.846Z,88.07
2022-12-01T04:10:11.137Z,88.12
2022-12-01T04:12:43.121Z,88.08
2022-12-01T04:15:16.784Z,88.05
2022-12-01T04:17:49.063Z,88.01
2022-12-01T04:20:21.435Z,88.22
2022-12-01T04:22:53.307Z,88.02
2022-12-01T04:25:25.099Z,88.13
2022-12-01T04:27:57.116Z,88.13
2022-12-01T04:30:29.168Z,88.18
2022-12-01T04:33:01.046Z,88.01
2022-12-01T04:35:32.928Z,88.17
2022-12-01T04:38:04.786Z,88.33
2022-12-01T04:40:36.642Z,88.30
2022-12-01T04:43:08.578Z,88.19
2022-12-01T04:45:40.918Z,88.19
2022-12-01T04:48:13.127Z,88.12
2022-12-01T04:50:44.934Z,88.26
2022-12-01T04:53:17.003Z,88.08
2022-12-01T04:55:48.965Z,87.77
2022-12-01T04:58:21.041Z,88.18
2022-12-01T05:00:53.006Z,88.00
2022-12-01T05:03:24.987Z,88.00
2022-12-01T05:06:04.744Z,87.78
2022-12-01T05:08:36.686Z,87.99
2022-12-01T05:11:11.339Z,87.96
2022-12-01T05:13:44.900Z,87.97
2022-12-01T05:16:19.047Z,87.79
2022-12-01T05:19:20.244Z,87.59
2022-12-01T05:21:52.808Z,87.78
2022-12-01T05:24:24.844Z,87.89
2022-12-01T05:26:57.119Z,87.96
2022-12-01T05:29:29.137Z,87.99
2022-12-01T05:32:01.514Z,87.91
2022-12-01T05:34:33.462Z,88.03
2022-12-01T05:37:05.960Z,87.99
2022-12-01T05:39:37.779Z,88.00
2022-12-01T05:42:09.693Z,88.02
2022-12-01T05:44:41.453Z,87.86
2022-12-01T05:47:13.486Z,87.80
2022-12-01T05:49:45.488Z,87.62
2022-12-01T05:52:17.429Z,87.69
2022-12-01T05:54:49.518Z,87.78
2022-12-01T05:57:21.413Z,87.78
2022-12-01T05:59:53.146Z,87.86
2022-12-01T06:02:26.884Z,88.00
2022-12-01T06:04:58.932Z,87.96
2022-12-01T06:07:31.364Z,87.94
2022-12-01T06:10:04.031Z,87.88
2022-12-01T06:12:36.014Z,87.69
2022-12-01T06:15:11.750Z,87.90
2022-12-01T06:17:43.718Z,87.70
2022-12-01T06:20:15.963Z,87.60
2022-12-01T06:22:48.315Z,87.47
2022-12-01T06:25:20.451Z,87.67
2022-12-01T06:27:56.377Z,87.84
2022-12-01T06:30:28.381Z,87.84
2022-12-01T06:33:00.404Z,87.67
2022-12-01T06:35:32.461Z,87.66
2022-12-01T06:38:04.238Z,87.49
2022-12-01T06:40:36.404Z,87.40
2022-12-01T06:43:08.326Z,87.51
2022-12-01T06:45:40.398Z,87.40
2022-12-01T06:48:12.962Z,87.40
2022-12-01T06:50:46.135Z,87.51
2022-12-01T06:53:18.018Z,87.44
2022-12-01T06:55:50.046Z,87.36
2022-12-01T06:58:22.003Z,87.38
2022-12-01T07:00:54.741Z,87.39
2022-12-01T07:03:26.500Z,87.34
2022-12-01T07:06:02.936Z,87.22
2022-12-01T07:08:35.175Z,87.06
2022-12-01T07:11:09.062Z,87.17
2022-12-01T07:13:41.317Z,87.29
2022-12-01T07:16:13.989Z,87.28
2022-12-01T07:18:45.804Z,87.52
2022-12-01T07:21:18.531Z,87.60
2022-12-01T07:23:50.300Z,87.55
2022-12-01T07:26:22.530Z,87.24
2022-12-01T07:28:55.510Z,87.12
2022-12-01T07:31:27.300Z,87.14
2022-12-01T07:33:59.332Z,86.86
2022-12-01T07:36:31.240Z,86.92
2022-12-01T07:39:05.790Z,87.09
2022-12-01T07:41:38.102Z,87.19
2022-12-01T07:44:10.392Z,87.08
2022-12-01T07:46:42.400Z,87.05
2022-12-01T07:49:15.644Z,87.01
2022-12-01T07:51:48.119Z,86.91
2022-12-01T07:54:21.307Z,86.58
2022-12-01T07:56:53.260Z,86.49
2022-12-01T07:59:25.094Z,86.61
2022-12-01T08:01:57.013Z,86.48
2022-12-01T08:04:28.989Z,86.51
2022-12-01T08:07:00.850Z,86.44
2022-12-01T08:09:32.826Z,86.17
2022-12-01T08:12:04.675Z,86.17
2022-12-01T08:14:36.710Z,86.18
2022-12-01T08:17:09.140Z,86.35
2022-12-01T08:19:41.255Z,86.41
2022-12-01T08:22:12.994Z,86.49
2022-12-01T08:24:44.842Z,86.32
2022-12-01T08:27:16.648Z,86.13
2022-12-01T08:29:48.778Z,86.06
2022-12-01T08:32:21.213Z,85.50
2022-12-01T08:34:53.716Z,85.44
2022-12-01T08:37:26.010Z,85.68
2022-12-01T08:39:57.921Z,85.74
2022-12-01T08:42:29.825Z,85.59
2022-12-01T08:45:01.843Z,85.31
2022-12-01T08:47:33.661Z,85.13
2022-12-01T08:50:06.466Z,84.95
2022-12-01T08:52:38.894Z,84.95
2022-12-01T08:55:12.363Z,84.89
2022-12-01T08:57:44.285Z,84.38
2022-12-01T09:00:17.559Z,84.28
2022-12-01T09:02:49.664Z,84.32
2022-12-01T09:05:22.329Z,84.62
2022-12-01T09:08:20.644Z,84.71
2022-12-01T09:10:55.181Z,84.70
2022-12-01T09:13:28.394Z,83.72
2022-12-01T09:16:02.943Z,83.31
2022-12-01T09:18:35.433Z,83.12
2022-12-01T09:21:15.043Z,82.92
2022-12-01T09:23:47.043Z,82.82
2022-12-01T09:26:21.236Z,82.38
2022-12-01T09:28:56.597Z,82.51
2022-12-01T09:31:29.127Z,82.68
2022-12-01T09:34:03.044Z,82.85
2022-12-01T09:36:36.727Z,83.00
2022-12-01T09:39:13.134Z,83.12
2022-12-01T09:41:48.738Z,83.06
2022-12-01T09:44:40.988Z,82.99
2022-12-01T09:47:19.463Z,82.53
2022-12-01T09:50:00.738Z,82.23
2022-12-01T09:52:41.301Z,81.64
2022-12-01T09:55:17.431Z,81.74
2022-12-01T09:57:53.085Z,81.92
2022-12-01T10:00:27.699Z,82.09
2022-12-01T10:03:05.901Z,81.89
2022-12-01T10:06:10.431Z,81.85
2022-12-01T10:08:40.254Z,81.92
2022-12-01T10:11:19.657Z,81.90
2022-12-01T10:13:51.533Z,82.03
2022-12-01T10:16:28.933Z,81.65
2022-12-01T10:19:06.713Z,81.82
2022-12-01T10:21:54.864Z,81.65
2022-12-01T10:24:35.423Z,81.03
2022-12-01T10:27:22.504Z,81.22
2022-12-01T10:30:04.058Z,81.47
2022-12-01T10:32:45.814Z,81.44
2022-12-01T10:35:20.716Z,81.31
2022-12-01T10:37:56.422Z,81.44
2022-12-01T10:40:29.785Z,81.53
2022-12-01T10:43:02.409Z,81.55
2022-12-01T10:45:45.703Z,81.70
2022-12-01T10:48:19.539Z,81.50
2022-12-01T10:50:53.924Z,81.33
2022-12-01T10:53:32.808Z,81.72
2022-12-01T10:56:10.983Z,81.86
2022-12-01T10:58:49.180Z,81.86
2022-12-01T11:01:26.521Z,81.75
2022-12-01T11:04:01.930Z,81.73
2022-12-01T11:06:34.130Z,81.40
2022-12-01T11:09:09.388Z,81.07
2022-12-01T11:11:42.841Z,80.76
2022-12-01T11:14:22.326Z,80.94
2022-12-01T11:16:55.214Z,80.60
2022-12-01T11:19:33.571Z,80.92
2022-12-01T11:22:23.884Z,80.92
2022-12-01T11:25:05.434Z,80.63
2022-12-01T11:27:46.484Z,80.55
2022-12-01T11:30:30.915Z,80.69
2022-12-01T11:33:05.492Z,80.85
2022-12-01T11:35:39.313Z,80.43
2022-12-01T11:38:30.755Z,80.54
2022-12-01T11:41:02.910Z,80.43
2022-12-01T11:43:38.428Z,80.61
2022-12-01T11:46:11.737Z,80.65
2022-12-01T11:48:58.222Z,80.42
2022-12-01T11:51:37.306Z,80.26
2022-12-01T11:54:16.011Z,80.28
2022-12-01T11:56:56.153Z,80.22
2022-12-01T11:59:36.375Z,80.24
2022-12-01T12:02:35.894Z,80.72
2022-12-01T12:05:39.685Z,80.40
2022-12-01T12:08:22.013Z,80.26
2022-12-01T12:11:03.371Z,80.22
2022-12-01T12:14:01.934Z,80.17
2022-12-01T12:16:46.287Z,80.21
2022-12-01T12:20:06.691Z,80.42
2022-12-01T12:22:50.873Z,80.50
2022-12-01T12:25:33.529Z,80.62
2022-12-01T12:28:23.913Z,80.84
2022-12-01T12:31:05.264Z,80.92
2022-12-01T12:34:01.583Z,80.67
2022-12-01T12:36:44.516Z,80.68
2022-12-01T12:39:31.844Z,80.81
2022-12-01T12:42:08.181Z,80.93
2022-12-01T12:44:50.560Z,80.69
2022-12-01T12:47:37.631Z,80.92
2022-12-01T12:50:24.700Z,81.13
2022-12-01T12:53:03.614Z,81.24
2022-12-01T12:55:41.167Z,81.40
2022-12-01T12:58:21.238Z,81.62
2022-12-01T13:00:59.922Z,81.61
2022-12-01T13:03:40.133Z,81.74
2022-12-01T13:06:19.437Z,81.80
2022-12-01T13:08:56.182Z,81.96
2022-12-01T13:11:33.173Z,81.62
2022-12-01T13:14:07.774Z,81.65
2022-12-01T13:16:42.443Z,81.96
2022-12-01T13:19:18.066Z,82.26
2022-12-01T13:21:52.940Z,82.43
2022-12-01T13:24:29.689Z,82.52
2022-12-01T13:27:04.695Z,82.53
2022-12-01T13:29:43.957Z,82.68
2022-12-01T13:32:31.538Z,82.50
2022-12-01T13:35:06.509Z,82.35
2022-12-01T13:37:39.832Z,82.60
2022-12-01T13:40:21.205Z,82.47
2022-12-01T13:43:08.586Z,82.41
2022-12-01T13:45:43.676Z,82.69
2022-12-01T13:48:30.256Z,82.92
2022-12-01T13:51:04.129Z,83.12
2022-12-01T13:53:37.969Z,83.33
2022-12-01T13:56:39.637Z,83.44
2022-12-01T13:59:41.078Z,83.30
2022-12-01T14:02:20.860Z,83.20
2022-12-01T14:04:52.793Z,83.26
2022-12-01T14:07:34.664Z,83.07
2022-12-01T14:10:27.118Z,83.21
2022-12-01T14:13:04.049Z,83.27
2022-12-01T14:15:42.436Z,83.32
2022-12-01T14:18:33.134Z,83.50
2022-12-01T14:21:07.941Z,83.45
2022-12-01T14:23:59.455Z,83.49
2022-12-01T14:26:32.537Z,83.69
2022-12-01T14:29:24.896Z,83.58
2022-12-01T14:32:23.777Z,83.68
2022-12-01T14:35:06.447Z,83.71
2022-12-01T14:37:45.232Z,83.74
2022-12-01T14:40:25.253Z,83.58
2022-12-01T14:43:18.506Z,83.44
2022-12-01T14:45:58.296Z,83.28
2022-12-01T14:48:38.490Z,83.39
2022-12-01T14:51:23.380Z,83.52
2022-12-01T14:53:58.189Z,83.71
2022-12-01T14:56:31.318Z,83.57
2022-12-01T14:59:14.804Z,83.76
2022-12-01T15:01:46.644Z,83.62
2022-12-01T15:04:19.078Z,83.51
2022-12-01T15:06:57.100Z,83.34
2022-12-01T15:09:34.117Z,83.17
2022-12-01T15:12:25.133Z,83.37
2022-12-01T15:14:56.931Z,83.40
2022-12-01T15:17:34.546Z,83.61
2022-12-01T15:20:27.572Z,83.68
2022-12-01T15:23:00.070Z,83.72
2022-12-01T15:25:35.692Z,83.84
2022-12-01T15:28:15.657Z,83.96
2022-12-01T15:30:50.707Z,83.76
2022-12-01T15:33:28.413Z,83.83
2022-12-01T15:36:03.934Z,84.01
2022-12-01T15:38:38.939Z,83.85
2022-12-01T15:41:29.158Z,83.81
2022-12-01T15:44:03.692Z,83.79
2022-12-01T15:46:36.521Z,83.73
2022-12-01T15:49:19.874Z,83.79
2022-12-01T15:51:53.034Z,83.97
2022-12-01T15:54:27.459Z,84.14
2022-12-01T15:57:01.041Z,84.11
2022-12-01T15:59:40.055Z,84.16
2022-12-01T16:02:27.938Z,84.08
2022-12-01T16:05:05.822Z,83.99
2022-12-01T16:08:11.439Z,84.04
2022-12-01T16:10:34.862Z,84.07
2022-12-01T16:13:46.829Z,83.83
2022-12-01T16:16:36.924Z,83.79
2022-12-01T16:19:26.488Z,83.86
2022-12-01T16:22:01.645Z,83.92
2022-12-01T16:24:36.672Z,83.89
2022-12-01T16:27:18.552Z,83.88
2022-12-01T16:29:53.291Z,84.00
2022-12-01T16:32:29.013Z,83.93
2022-12-01T16:35:01.153Z,83.61
2022-12-01T16:37:33.272Z,83.56
2022-12-01T16:40:08.266Z,83.61
2022-12-01T16:42:40.478Z,83.62
2022-12-01T16:45:15.102Z,83.32
2022-12-01T16:47:48.680Z,83.20
2022-12-01T16:50:23.028Z,82.87
2022-12-01T16:52:54.816Z,82.55
2022-12-01T16:55:33.175Z,82.57
2022-12-01T16:58:03.411Z,82.90
2022-12-01T17:00:35.371Z,83.01
2022-12-01T17:03:07.953Z,82.95
2022-12-01T17:05:40.460Z,83.12
2022-12-01T17:08:14.492Z,83.09
2022-12-01T17:10:49.578Z,83.05
2022-12-01T17:13:24.141Z,82.74
2022-12-01T17:15:56.943Z,82.88
2022-12-01T17:18:28.742Z,82.71
2022-12-01T17:21:02.431Z,82.51
2022-12-01T17:23:34.698Z,82.53
2022-12-01T17:26:10.077Z,82.26
2022-12-01T17:28:42.650Z,82.35
2022-12-01T17:31:14.859Z,82.60
2022-12-01T17:33:46.693Z,82.75
2022-12-01T17:36:18.778Z,82.84
2022-12-01T17:38:51.049Z,82.69
2022-12-01T17:41:25.613Z,82.63
2022-12-01T17:43:57.501Z,82.50
2022-12-01T17:46:30.217Z,82.67
2022-12-01T17:49:08.704Z,82.35
2022-12-01T17:51:40.978Z,82.21
2022-12-01T17:54:13.177Z,81.87
2022-12-01T17:56:45.892Z,81.87
2022-12-01T17:59:18.857Z,82.05
2022-12-01T18:01:50.619Z,82.14
2022-12-01T18:04:22.456Z,82.03
2022-12-01T18:06:54.758Z,82.15
2022-12-01T18:09:26.614Z,81.92
2022-12-01T18:11:58.680Z,82.03
2022-12-01T18:14:30.603Z,82.20
2022-12-01T18:17:02.522Z,81.76
2022-12-01T18:19:34.348Z,81.34
2022-12-01T18:22:06.220Z,81.43
2022-12-01T18:24:38.127Z,81.27
2022-12-01T18:27:10.108Z,81.55
2022-12-01T18:29:42.246Z,81.74
2022-12-01T18:32:13.971Z,81.92
2022-12-01T18:34:46.142Z,81.74
2022-12-01T18:37:18.275Z,81.96
2022-12-01T18:39:50.240Z,81.41
2022-12-01T18:42:22.033Z,81.41
2022-12-01T18:44:53.794Z,81.34
2022-12-01T18:47:25.560Z,81.21
2022-12-01T18:49:57.470Z,81.33
2022-12-01T18:52:29.260Z,81.50
2022-12-01T18:55:01.088Z,81.68
2022-12-01T18:57:33.012Z,81.72
2022-12-01T19:00:06.165Z,81.89
2022-12-01T19:02:38.006Z,81.95
2022-12-01T19:05:11.223Z,81.95
2022-12-01T19:07:43.027Z,81.70
2022-12-01T19:10:15.183Z,81.94
2022-12-01T19:12:47.005Z,81.99
2022-12-01T19:15:18.871Z,82.08
2022-12-01T19:17:51.357Z,81.77
2022-12-01T19:20:23.397Z,81.72
2022-12-01T19:22:55.190Z,81.69
2022-12-01T19:25:27.078Z,81.90
2022-12-01T19:27:59.047Z,81.50
2022-12-01T19:30:31.053Z,81.79
2022-12-01T19:33:03.079Z,81.84
2022-12-01T19:35:35.119Z,81.89
2022-12-01T19:38:06.890Z,81.83
2022-12-01T19:40:42.176Z,81.75
2022-12-01T19:43:14.516Z,81.79
2022-12-01T19:45:46.479Z,81.73
2022-12-01T19:48:18.393Z,81.65
2022-12-01T19:50:50.189Z,81.81
2022-12-01T19:53:21.994Z,81.96
2022-12-01T19:55:54.352Z,82.41
2022-12-01T19:58:26.590Z,82.71
2022-12-01T20:01:05.529Z,82.72
2022-12-01T20:03:37.868Z,82.78
2022-12-01T20:06:12.741Z,83.02
2022-12-01T20:08:46.782Z,82.90
2022-12-01T20:11:19.026Z,82.64
2022-12-01T20:13:51.548Z,82.45
2022-12-01T20:16:25.310Z,82.32
2022-12-01T20:18:57.494Z,82.46
2022-12-01T20:21:32.952Z,82.62
2022-12-01T20:24:07.333Z,82.92
2022-12-01T20:26:42.293Z,83.16
2022-12-01T20:29:17.644Z,83.20
2022-12-01T20:31:52.911Z,83.17
2022-12-01T20:34:27.813Z,83.24
2022-12-01T20:37:00.439Z,83.27
2022-12-01T20:39:34.741Z,83.09
2022-12-01T20:42:06.795Z,83.04
2022-12-01T20:44:40.317Z,83.13
2022-12-01T20:47:14.770Z,83.17
2022-12-01T20:49:46.589Z,82.97
2022-12-01T20:52:18.384Z,83.04
2022-12-01T20:54:50.443Z,83.49
2022-12-01T20:57:22.530Z,83.42
2022-12-01T20:59:54.721Z,83.25
2022-12-01T21:02:26.650Z,83.23
2022-12-01T21:04:59.325Z,83.51
2022-12-01T21:07:31.426Z,83.43
2022-12-01T21:10:05.217Z,83.41
2022-12-01T21:12:57.014Z,83.07
2022-12-01T21:15:31.312Z,83.16
2022-12-01T21:18:09.553Z,83.51
2022-12-01T21:20:44.471Z,83.69
2022-12-01T21:23:18.099Z,83.81
2022-12-01T21:25:51.695Z,83.76
2022-12-01T21:28:26.693Z,83.88
2022-12-01T21:31:13.950Z,83.61
2022-12-01T21:33:46.269Z,83.79
2022-12-01T21:36:20.354Z,83.55
2022-12-01T21:38:56.200Z,82.83
2022-12-01T21:41:30.017Z,82.78
2022-12-01T21:44:17.352Z,83.03
2022-12-01T21:46:51.297Z,83.05
2022-12-01T21:49:32.008Z,83.03
2022-12-01T21:52:08.146Z,83.34
2022-12-01T21:54:39.925Z,83.76
2022-12-01T21:57:30.293Z,84.14
2022-12-01T22:00:25.633Z,84.33
2022-12-01T22:03:33.942Z,84.21
2022-12-01T22:06:31.996Z,84.18
2022-12-01T22:09:03.711Z,83.72
2022-12-01T22:11:35.470Z,83.07
2022-12-01T22:14:16.480Z,82.49
2022-12-01T22:16:54.112Z,82.70
2022-12-01T22:19:32.083Z,82.90
2022-12-01T22:22:16.687Z,82.72
2022-12-01T22:24:50.261Z,82.85
2022-12-01T22:27:34.008Z,82.97
2022-12-01T22:30:19.529Z,83.12
2022-12-01T22:32:56.946Z,83.23
2022-12-01T22:35:37.623Z,83.18
2022-12-01T22:38:36.229Z,83.26
2022-12-01T22:41:12.136Z,83.17
2022-12-01T22:43:51.807Z,82.94
2022-12-01T22:46:30.548Z,83.17
2022-12-01T22:49:13.745Z,83.13
2022-12-01T22:51:49.887Z,83.13
2022-12-01T22:54:33.579Z,83.10
2022-12-01T22:57:33.267Z,83.23
2022-12-01T23:00:17.154Z,83.44
2022-12-01T23:02:50.856Z,83.25
2022-12-01T23:05:27.076Z,82.97
2022-12-01T23:07:59.121Z,82.83
2022-12-01T23:10:35.345Z,82.79
2022-12-01T23:13:20.201Z,82.75
2022-12-01T23:15:54.283Z,83.05
2022-12-01T23:18:29.141Z,82.98
2022-12-01T23:21:01.992Z,83.22
2022-12-01T23:23:35.698Z,83.32
2022-12-01T23:26:09.780Z,83.39
2022-12-01T23:28:42.027Z,83.63
2022-12-01T23:31:13.884Z,83.56
2022-12-01T23:33:45.748Z,83.49
2022-12-01T23:36:20.019Z,83.39
2022-12-01T23:38:54.125Z,83.31
2022-12-01T23:41:35.862Z,83.15
2022-12-01T23:44:19.889Z,83.52
2022-12-01T23:46:53.887Z,83.58
2022-12-01T23:49:30.390Z,83.74
2022-12-01T23:52:03.847Z,83.97
2022-12-01T23:54:38.882Z,83.90
2022-12-01T23:57:19.593Z,84.02
2022-12-01T23:59:55.962Z,83.73
